Walkden, United Kingdom
Current Conditions -  °F | °C
As of 5:50 PM on Sunday 21 Dec 2014 (Local Time) from EGCC Reporting Station
Few Clouds Few Clouds  
Wind Chill: 52°   Ceiling: Unl
Heat Index: 52°   Visibility: 6mi
Dew Point: 46°   Wind: 18mph
Humidity: 82%   Direction: 230°SW
Pressure: 29.97"   Gusts: NA
Location:  53.52°N, 2.4°W
Report Text: EGCC 211750Z 23016KT 9999 FEW036 11/08 Q1015 NOSIG
Loading
Personal Weather Stations






























Interactive Weather Map New forecast layout! Learn more

10-Day Weather Forecast

Advertisements
Track Severe Weather on mobile